createdAt,value
2017-12-29T00:01:19.524Z,2.30
2017-12-29T00:03:47.654Z,2.30
2017-12-29T00:06:15.848Z,2.30
2017-12-29T00:08:43.997Z,2.30
2017-12-29T00:11:12.163Z,2.20
2017-12-29T00:13:41.040Z,2.30
2017-12-29T00:16:09.164Z,2.30
2017-12-29T00:18:38.103Z,2.30
2017-12-29T00:21:07.221Z,2.30
2017-12-29T00:23:35.337Z,2.40
2017-12-29T00:26:04.256Z,2.30
2017-12-29T00:28:33.971Z,2.30
2017-12-29T00:31:02.836Z,2.30
2017-12-29T00:33:30.965Z,2.20
2017-12-29T00:35:59.860Z,2.20
2017-12-29T00:38:28.780Z,2.40
2017-12-29T00:40:57.672Z,2.30
2017-12-29T00:43:26.585Z,2.30
2017-12-29T00:45:55.479Z,2.40
2017-12-29T00:48:23.612Z,2.40
2017-12-29T00:50:51.741Z,2.50
2017-12-29T00:53:19.888Z,2.30
2017-12-29T00:55:48.148Z,2.40
2017-12-29T00:58:16.296Z,2.40
2017-12-29T01:00:44.416Z,2.60
2017-12-29T01:03:12.564Z,2.50
2017-12-29T01:05:40.736Z,2.50
2017-12-29T01:08:08.860Z,2.60
2017-12-29T01:10:37.758Z,2.60
2017-12-29T01:13:06.673Z,2.60
2017-12-29T01:15:35.596Z,2.50
2017-12-29T01:18:03.740Z,2.50
2017-12-29T01:20:31.887Z,2.60
2017-12-29T01:23:00.012Z,2.60
2017-12-29T01:25:28.144Z,2.50
2017-12-29T01:27:56.273Z,2.50
2017-12-29T01:30:24.420Z,2.50
2017-12-29T01:32:52.551Z,2.50
2017-12-29T01:35:20.689Z,2.50
2017-12-29T01:37:48.798Z,2.50
2017-12-29T01:40:17.725Z,2.40
2017-12-29T01:42:45.844Z,2.40
2017-12-29T01:45:13.967Z,2.50
2017-12-29T01:47:54.056Z,2.60
2017-12-29T01:50:22.212Z,2.40
2017-12-29T01:52:50.349Z,2.40
2017-12-29T01:55:18.485Z,2.50
2017-12-29T01:57:47.409Z,2.50
2017-12-29T02:00:15.519Z,2.50
2017-12-29T02:02:43.678Z,2.60
2017-12-29T02:05:11.787Z,2.70
2017-12-29T02:07:40.708Z,2.80
2017-12-29T02:10:09.608Z,2.50
2017-12-29T02:12:38.532Z,2.60
2017-12-29T02:15:06.654Z,2.60
2017-12-29T02:17:34.791Z,2.70
2017-12-29T02:20:03.683Z,2.70
2017-12-29T02:22:33.263Z,2.80
2017-12-29T02:25:01.400Z,2.70
2017-12-29T02:27:29.528Z,2.90
2017-12-29T02:29:57.672Z,3.00
2017-12-29T02:32:26.572Z,3.00
2017-12-29T02:34:55.490Z,3.00
2017-12-29T02:37:23.604Z,3.00
2017-12-29T02:39:51.736Z,2.90
2017-12-29T02:42:20.627Z,2.90
2017-12-29T02:44:48.790Z,2.80
2017-12-29T02:47:18.405Z,2.80
2017-12-29T02:49:46.529Z,2.80
2017-12-29T02:52:15.438Z,2.80
2017-12-29T02:54:44.323Z,2.80
2017-12-29T02:57:12.479Z,2.80
2017-12-29T02:59:40.603Z,2.80
2017-12-29T03:02:09.494Z,2.70
2017-12-29T03:04:38.411Z,2.70
2017-12-29T03:07:06.549Z,2.70
2017-12-29T03:09:34.718Z,2.70
2017-12-29T03:12:02.836Z,2.60
2017-12-29T03:14:30.982Z,2.70
2017-12-29T03:16:59.104Z,2.60
2017-12-29T03:19:27.230Z,2.60
2017-12-29T03:21:55.366Z,2.60
2017-12-29T03:24:24.227Z,2.60
2017-12-29T03:26:53.132Z,2.80
2017-12-29T03:29:22.048Z,2.80
2017-12-29T03:31:50.168Z,2.80
2017-12-29T03:34:18.314Z,2.80
2017-12-29T03:36:46.461Z,2.80
2017-12-29T03:39:14.577Z,2.70
2017-12-29T03:41:43.488Z,2.60
2017-12-29T03:44:11.623Z,2.60
2017-12-29T03:46:39.760Z,2.60
2017-12-29T03:49:07.889Z,2.70
2017-12-29T03:51:36.022Z,2.70
2017-12-29T03:54:04.932Z,2.80
2017-12-29T03:56:34.232Z,2.80
2017-12-29T03:59:03.119Z,2.90
2017-12-29T04:01:31.264Z,2.80
2017-12-29T04:03:59.471Z,2.90
2017-12-29T04:06:27.580Z,2.90
2017-12-29T04:08:55.709Z,2.90
2017-12-29T04:11:23.873Z,2.90
2017-12-29T04:13:53.364Z,2.90
2017-12-29T04:16:21.494Z,2.90
2017-12-29T04:18:49.624Z,2.90
2017-12-29T04:21:17.742Z,2.90
2017-12-29T04:23:46.628Z,2.90
2017-12-29T04:26:14.782Z,2.90
2017-12-29T04:28:42.905Z,2.90
2017-12-29T04:31:11.044Z,2.90
2017-12-29T04:33:39.719Z,2.80
2017-12-29T04:36:07.845Z,2.90
2017-12-29T04:38:36.696Z,2.90
2017-12-29T04:41:06.420Z,2.90
2017-12-29T04:43:35.316Z,2.90
2017-12-29T04:46:04.228Z,2.90
2017-12-29T04:48:33.129Z,2.90
2017-12-29T04:51:02.638Z,2.90
2017-12-29T04:53:31.533Z,2.80
2017-12-29T04:56:00.425Z,2.80
2017-12-29T04:58:28.567Z,2.80
2017-12-29T05:00:56.711Z,2.80
2017-12-29T05:03:24.844Z,2.80
2017-12-29T05:05:52.973Z,2.60
2017-12-29T05:08:21.915Z,2.60
2017-12-29T05:10:50.796Z,2.60
2017-12-29T05:13:19.712Z,2.70
2017-12-29T05:15:47.865Z,2.70
2017-12-29T05:18:16.756Z,2.70
2017-12-29T05:20:45.860Z,2.70
2017-12-29T05:23:13.979Z,2.70
2017-12-29T05:25:42.889Z,2.70
2017-12-29T05:28:11.765Z,2.60
2017-12-29T05:30:39.908Z,2.60
2017-12-29T05:33:08.027Z,2.60
2017-12-29T05:35:36.985Z,2.70
2017-12-29T05:38:05.866Z,2.70
2017-12-29T05:40:34.778Z,2.60
2017-12-29T05:43:03.658Z,2.60
2017-12-29T05:45:31.773Z,2.60
2017-12-29T05:48:00.671Z,2.70
2017-12-29T05:50:29.564Z,2.50
2017-12-29T05:52:58.458Z,2.50
2017-12-29T05:55:26.578Z,2.50
2017-12-29T05:57:54.724Z,2.60
2017-12-29T06:00:22.868Z,2.60
2017-12-29T06:02:51.025Z,2.70
2017-12-29T06:05:19.932Z,2.60
2017-12-29T06:07:48.832Z,2.60
2017-12-29T06:10:16.964Z,2.60
2017-12-29T06:12:45.115Z,2.40
2017-12-29T06:15:13.256Z,2.60
2017-12-29T06:17:41.388Z,2.60
2017-12-29T06:20:09.528Z,2.70
2017-12-29T06:22:37.655Z,2.70
2017-12-29T06:25:06.572Z,2.60
2017-12-29T06:27:34.708Z,2.60
2017-12-29T06:30:02.844Z,2.50
2017-12-29T06:32:31.031Z,2.30
2017-12-29T06:34:59.928Z,2.30
2017-12-29T06:37:28.539Z,2.30
2017-12-29T06:39:56.668Z,2.50
2017-12-29T06:42:24.807Z,2.60
2017-12-29T06:44:52.939Z,2.60
2017-12-29T06:47:21.187Z,2.70
2017-12-29T06:49:50.052Z,2.70
2017-12-29T06:52:18.191Z,2.70
2017-12-29T06:54:47.472Z,2.80
2017-12-29T06:57:15.628Z,2.80
2017-12-29T06:59:43.754Z,2.90
2017-12-29T07:02:11.866Z,2.90
2017-12-29T07:04:40.009Z,2.90
2017-12-29T07:07:08.908Z,3.00
2017-12-29T07:09:37.053Z,3.00
2017-12-29T07:12:05.932Z,3.00
2017-12-29T07:14:34.083Z,3.00
2017-12-29T07:17:02.964Z,2.90
2017-12-29T07:19:31.875Z,2.90
2017-12-29T07:21:59.997Z,2.90
2017-12-29T07:24:28.760Z,2.90
2017-12-29T07:26:58.817Z,2.70
2017-12-29T07:29:27.677Z,2.70
2017-12-29T07:31:57.324Z,2.70
2017-12-29T07:34:25.460Z,2.70
2017-12-29T07:36:53.600Z,2.70
2017-12-29T07:39:21.728Z,2.80
2017-12-29T07:41:49.880Z,2.80
2017-12-29T07:44:18.559Z,2.70
2017-12-29T07:46:47.484Z,2.70
2017-12-29T07:49:15.642Z,2.70
2017-12-29T07:51:45.263Z,2.70
2017-12-29T07:54:13.436Z,2.70
2017-12-29T07:56:41.542Z,2.80
2017-12-29T07:59:10.444Z,2.80
2017-12-29T08:01:39.353Z,2.70
2017-12-29T08:04:08.270Z,2.80
2017-12-29T08:06:36.421Z,2.80
2017-12-29T08:09:05.456Z,2.80
2017-12-29T08:11:33.586Z,2.80
2017-12-29T08:14:02.650Z,2.90
2017-12-29T08:16:32.157Z,2.80
2017-12-29T08:19:01.066Z,2.80
2017-12-29T08:21:30.809Z,2.90
2017-12-29T08:24:00.385Z,2.80
2017-12-29T08:26:28.480Z,2.70
2017-12-29T08:28:57.391Z,2.80
2017-12-29T08:31:26.297Z,2.90
2017-12-29T08:33:55.421Z,2.90
2017-12-29T08:36:24.344Z,2.90
2017-12-29T08:38:53.208Z,2.90
2017-12-29T08:41:22.818Z,3.10
2017-12-29T08:43:50.965Z,3.00
2017-12-29T08:46:19.097Z,3.00
2017-12-29T08:48:47.231Z,3.10
2017-12-29T08:51:15.377Z,3.10
2017-12-29T08:53:44.259Z,3.20
2017-12-29T08:56:12.396Z,3.10
2017-12-29T08:58:40.530Z,3.20
2017-12-29T09:01:08.690Z,3.20
2017-12-29T09:03:36.796Z,3.20
2017-12-29T09:06:04.945Z,3.30
2017-12-29T09:08:33.076Z,3.30
2017-12-29T09:11:01.237Z,3.30
2017-12-29T09:13:29.347Z,3.30
2017-12-29T09:15:57.508Z,3.40
2017-12-29T09:18:25.617Z,3.30
2017-12-29T09:20:53.749Z,3.40
2017-12-29T09:23:21.885Z,3.40
2017-12-29T09:25:50.033Z,3.40
2017-12-29T09:28:18.191Z,3.30
2017-12-29T09:30:46.316Z,3.40
2017-12-29T09:33:14.471Z,3.40
2017-12-29T09:35:42.645Z,3.40
2017-12-29T09:38:11.516Z,3.50
2017-12-29T09:40:39.646Z,3.50
2017-12-29T09:43:07.776Z,3.60
2017-12-29T09:45:38.038Z,3.60
2017-12-29T09:48:06.944Z,3.60
2017-12-29T09:50:36.775Z,3.70
2017-12-29T09:53:05.693Z,3.80
2017-12-29T09:55:33.836Z,3.70
2017-12-29T09:58:02.230Z,3.80
2017-12-29T10:00:30.376Z,3.70
2017-12-29T10:02:58.521Z,3.80
2017-12-29T10:05:26.664Z,3.80
2017-12-29T10:07:54.795Z,3.90
2017-12-29T10:10:23.705Z,4.00
2017-12-29T10:12:52.594Z,4.00
2017-12-29T10:15:20.721Z,4.00
2017-12-29T10:17:48.875Z,3.90
2017-12-29T10:20:18.324Z,4.00
2017-12-29T10:22:47.305Z,4.00
2017-12-29T10:25:16.592Z,4.40
2017-12-29T10:27:44.732Z,4.30
2017-12-29T10:30:12.854Z,4.40
2017-12-29T10:32:41.012Z,4.40
2017-12-29T10:35:10.097Z,4.50
2017-12-29T10:37:38.265Z,4.50
2017-12-29T10:40:06.385Z,4.50
2017-12-29T10:42:35.941Z,4.50
2017-12-29T10:45:04.128Z,4.40
2017-12-29T10:47:32.241Z,4.40
2017-12-29T10:50:01.170Z,4.50
2017-12-29T10:52:29.304Z,4.50
2017-12-29T10:54:57.453Z,4.60
2017-12-29T10:57:25.592Z,4.60
2017-12-29T10:59:54.488Z,4.50
2017-12-29T11:02:22.628Z,4.40
2017-12-29T11:04:50.766Z,4.50
2017-12-29T11:07:18.922Z,4.50
2017-12-29T11:09:47.066Z,4.70
2017-12-29T11:12:15.212Z,4.70
2017-12-29T11:14:43.372Z,4.80
2017-12-29T11:17:11.496Z,4.90
2017-12-29T11:19:40.389Z,4.90
2017-12-29T11:22:08.532Z,4.90
2017-12-29T11:24:36.660Z,4.90
2017-12-29T11:27:05.587Z,4.90
2017-12-29T11:29:34.484Z,4.80
2017-12-29T11:32:03.380Z,4.90
2017-12-29T11:34:31.984Z,4.80
2017-12-29T11:37:00.179Z,4.90
2017-12-29T11:39:29.072Z,5.00
2017-12-29T11:41:57.989Z,5.00
2017-12-29T11:44:26.124Z,5.00
2017-12-29T11:46:54.273Z,5.00
2017-12-29T11:49:22.424Z,4.90
2017-12-29T11:51:52.054Z,4.90
2017-12-29T11:54:20.968Z,5.20
2017-12-29T11:56:49.902Z,5.20
2017-12-29T11:59:18.052Z,5.20
2017-12-29T12:01:47.610Z,5.10
2017-12-29T12:04:15.796Z,5.10
2017-12-29T12:06:43.962Z,5.10
2017-12-29T12:09:12.840Z,5.20
2017-12-29T12:11:41.781Z,5.20
2017-12-29T12:14:09.926Z,5.20
2017-12-29T12:16:38.072Z,5.20
2017-12-29T12:19:06.949Z,5.20
2017-12-29T12:21:35.909Z,5.20
2017-12-29T12:24:04.054Z,5.30
2017-12-29T12:26:32.205Z,5.50
2017-12-29T12:29:01.113Z,5.70
2017-12-29T12:31:29.258Z,5.60
2017-12-29T12:33:57.384Z,5.70
2017-12-29T12:36:26.296Z,5.80
2017-12-29T12:38:55.217Z,5.70
2017-12-29T12:41:23.888Z,5.70
2017-12-29T12:43:52.797Z,5.80
2017-12-29T12:46:21.707Z,5.70
2017-12-29T12:48:50.617Z,5.60
2017-12-29T12:51:18.773Z,5.60
2017-12-29T12:53:46.897Z,5.60
2017-12-29T12:56:15.043Z,5.50
2017-12-29T12:58:43.832Z,5.40
2017-12-29T13:01:11.978Z,5.40
2017-12-29T13:03:40.108Z,5.40
2017-12-29T13:06:08.238Z,5.30
2017-12-29T13:08:36.377Z,5.30
2017-12-29T13:11:04.485Z,5.30
2017-12-29T13:13:33.394Z,5.40
2017-12-29T13:16:02.310Z,5.40
2017-12-29T13:18:31.206Z,5.30
2017-12-29T13:20:59.360Z,5.30
2017-12-29T13:23:28.464Z,5.40
2017-12-29T13:25:58.124Z,5.30
2017-12-29T13:28:26.243Z,5.40
2017-12-29T13:30:54.429Z,5.40
2017-12-29T13:33:22.549Z,5.40
2017-12-29T13:35:50.708Z,5.30
2017-12-29T13:38:18.860Z,5.30
2017-12-29T13:40:47.794Z,5.30
2017-12-29T13:43:16.714Z,5.30
2017-12-29T13:45:45.640Z,5.40
2017-12-29T13:48:14.677Z,5.40
2017-12-29T13:50:42.816Z,5.40
2017-12-29T13:53:10.972Z,5.40
2017-12-29T13:55:39.121Z,5.40
2017-12-29T13:58:08.016Z,5.40
2017-12-29T14:00:36.921Z,5.30
2017-12-29T14:03:05.846Z,5.30
2017-12-29T14:05:34.743Z,5.30
2017-12-29T14:08:03.640Z,5.20
2017-12-29T14:10:32.556Z,5.20
2017-12-29T14:13:01.432Z,5.30
2017-12-29T14:15:29.565Z,5.20
2017-12-29T14:17:57.718Z,5.20
2017-12-29T14:20:26.638Z,5.40
2017-12-29T14:22:54.770Z,5.40
2017-12-29T14:25:23.674Z,5.30
2017-12-29T14:27:51.827Z,5.30
2017-12-29T14:30:19.956Z,5.30
2017-12-29T14:32:48.120Z,5.40
2017-12-29T14:35:16.249Z,5.40
2017-12-29T14:37:46.106Z,5.30
2017-12-29T14:40:14.238Z,5.30
2017-12-29T14:42:43.890Z,5.20
2017-12-29T14:45:12.799Z,5.20
2017-12-29T14:47:40.920Z,5.20
2017-12-29T14:50:09.087Z,5.20
2017-12-29T14:52:37.221Z,5.10
2017-12-29T14:55:05.368Z,5.20
2017-12-29T14:57:33.494Z,5.10
2017-12-29T15:00:01.660Z,5.20
2017-12-29T15:02:30.538Z,5.10
2017-12-29T15:04:58.688Z,5.10
2017-12-29T15:07:28.787Z,5.10
2017-12-29T15:09:56.950Z,5.10
2017-12-29T15:12:25.088Z,5.20
2017-12-29T15:14:53.265Z,5.00
2017-12-29T15:17:22.160Z,5.00
2017-12-29T15:19:50.291Z,5.00
2017-12-29T15:22:18.424Z,5.10
2017-12-29T15:24:46.567Z,5.10
2017-12-29T15:27:14.701Z,5.00
2017-12-29T15:29:42.835Z,5.10
2017-12-29T15:32:10.992Z,5.00
2017-12-29T15:34:39.906Z,5.10
2017-12-29T15:37:08.805Z,5.00
2017-12-29T15:39:37.704Z,4.90
2017-12-29T15:42:05.849Z,4.90
2017-12-29T15:44:33.993Z,4.80
2017-12-29T15:47:02.893Z,4.90
2017-12-29T15:49:31.791Z,4.90
2017-12-29T15:52:00.711Z,4.90
2017-12-29T15:54:29.611Z,4.90
2017-12-29T15:56:58.503Z,4.80
2017-12-29T15:59:27.428Z,4.80
2017-12-29T16:01:58.149Z,4.80
2017-12-29T16:04:26.295Z,4.90
2017-12-29T16:06:54.421Z,4.90
2017-12-29T16:09:23.338Z,4.90
2017-12-29T16:11:52.254Z,4.80
2017-12-29T16:14:21.149Z,4.70
2017-12-29T16:16:50.048Z,4.70
2017-12-29T16:19:18.204Z,4.70
2017-12-29T16:21:46.364Z,4.60
2017-12-29T16:24:14.525Z,4.40
2017-12-29T16:26:42.672Z,4.20
2017-12-29T16:29:11.580Z,4.10
2017-12-29T16:31:39.757Z,4.00
2017-12-29T16:34:07.888Z,3.90
2017-12-29T16:36:36.054Z,3.80
2017-12-29T16:39:04.196Z,3.70
2017-12-29T16:41:32.317Z,3.60
2017-12-29T16:44:01.228Z,3.60
2017-12-29T16:46:31.121Z,3.50
2017-12-29T16:48:59.250Z,3.50
2017-12-29T16:51:28.160Z,3.60
2017-12-29T16:53:56.298Z,3.50
2017-12-29T16:56:24.983Z,3.60
2017-12-29T16:58:53.223Z,3.60
2017-12-29T17:01:22.097Z,3.50
2017-12-29T17:03:50.305Z,3.50
2017-12-29T17:06:18.409Z,3.30
2017-12-29T17:08:46.588Z,3.10
2017-12-29T17:11:16.177Z,3.00
2017-12-29T17:13:44.423Z,2.90
2017-12-29T17:16:12.588Z,2.90
2017-12-29T17:18:41.987Z,2.90
2017-12-29T17:21:10.911Z,2.80
2017-12-29T17:23:40.969Z,2.90
2017-12-29T17:26:09.077Z,2.90
2017-12-29T17:28:37.198Z,3.00
2017-12-29T17:31:07.309Z,2.90
2017-12-29T17:33:36.150Z,2.90
2017-12-29T17:36:04.292Z,2.90
2017-12-29T17:38:32.440Z,2.90
2017-12-29T17:41:00.586Z,3.00
2017-12-29T17:43:29.459Z,3.30
2017-12-29T17:45:57.621Z,3.30
2017-12-29T17:48:25.738Z,3.30
2017-12-29T17:50:53.880Z,3.40
2017-12-29T17:53:22.157Z,3.60
2017-12-29T17:55:50.324Z,3.60
2017-12-29T17:58:19.768Z,3.60
2017-12-29T18:00:47.928Z,3.50
2017-12-29T18:03:16.829Z,3.40
2017-12-29T18:05:45.703Z,3.30
2017-12-29T18:08:13.836Z,3.20
2017-12-29T18:10:41.953Z,3.20
2017-12-29T18:13:10.089Z,3.30
2017-12-29T18:15:38.993Z,3.20
2017-12-29T18:18:07.145Z,3.10
2017-12-29T18:20:35.299Z,3.20
2017-12-29T18:23:03.430Z,3.10
2017-12-29T18:25:32.459Z,3.00
2017-12-29T18:28:01.357Z,3.00
2017-12-29T18:30:30.264Z,3.30
2017-12-29T18:32:59.000Z,3.30
2017-12-29T18:35:27.153Z,3.30
2017-12-29T18:37:56.063Z,3.60
2017-12-29T18:40:24.956Z,3.60
2017-12-29T18:42:53.113Z,3.60
2017-12-29T18:45:21.267Z,3.60
2017-12-29T18:47:49.401Z,3.60
2017-12-29T18:50:18.337Z,3.50
2017-12-29T18:52:46.480Z,3.50
2017-12-29T18:55:14.651Z,3.50
2017-12-29T18:57:42.793Z,3.40
2017-12-29T19:00:10.921Z,3.40
2017-12-29T19:02:39.045Z,3.30
2017-12-29T19:05:07.957Z,3.40
2017-12-29T19:07:36.863Z,3.50
2017-12-29T19:10:05.756Z,3.50
2017-12-29T19:12:34.661Z,3.50
2017-12-29T19:15:03.583Z,3.50
2017-12-29T19:17:31.733Z,3.40
2017-12-29T19:19:59.866Z,3.40
2017-12-29T19:22:27.997Z,3.30
2017-12-29T19:24:56.126Z,3.20
2017-12-29T19:27:24.292Z,3.30
2017-12-29T19:29:53.174Z,3.40
2017-12-29T19:32:21.352Z,3.40
2017-12-29T19:34:49.481Z,3.40
2017-12-29T19:37:17.642Z,3.40
2017-12-29T19:39:46.577Z,3.30
2017-12-29T19:42:15.472Z,3.30
2017-12-29T19:44:44.386Z,3.20
2017-12-29T19:47:12.550Z,3.20
2017-12-29T19:49:41.479Z,3.20
2017-12-29T19:52:09.613Z,3.10
2017-12-29T19:54:39.053Z,3.20
2017-12-29T19:57:08.722Z,3.00
2017-12-29T19:59:36.870Z,3.10
2017-12-29T20:02:05.767Z,3.00
2017-12-29T20:04:34.880Z,3.00
2017-12-29T20:07:02.998Z,3.00
2017-12-29T20:09:31.136Z,3.10
2017-12-29T20:11:59.293Z,3.10
2017-12-29T20:14:27.423Z,3.10
2017-12-29T20:16:56.357Z,3.20
2017-12-29T20:19:24.475Z,3.20
2017-12-29T20:21:52.656Z,3.10
2017-12-29T20:24:20.768Z,3.20
2017-12-29T20:26:49.715Z,3.30
2017-12-29T20:29:17.885Z,3.30
2017-12-29T20:31:46.820Z,3.30
2017-12-29T20:34:14.986Z,3.30
2017-12-29T20:36:43.130Z,3.40
2017-12-29T20:39:11.300Z,3.40
2017-12-29T20:41:39.450Z,3.60
2017-12-29T20:44:08.697Z,3.60
2017-12-29T20:46:36.842Z,3.70
2017-12-29T20:49:04.986Z,3.70
2017-12-29T20:51:33.125Z,3.80
2017-12-29T20:54:01.289Z,3.70
2017-12-29T20:56:31.166Z,3.90
2017-12-29T20:58:59.328Z,3.80
2017-12-29T21:01:27.453Z,3.90
2017-12-29T21:03:55.630Z,3.90
2017-12-29T21:06:24.930Z,3.90
2017-12-29T21:08:53.094Z,4.00
2017-12-29T21:11:21.991Z,4.00
2017-12-29T21:13:50.126Z,4.00
2017-12-29T21:16:19.780Z,3.90
2017-12-29T21:18:47.918Z,4.00
2017-12-29T21:21:16.052Z,4.10
2017-12-29T21:23:44.990Z,4.10
2017-12-29T21:26:13.889Z,4.10
2017-12-29T21:28:42.826Z,4.00
2017-12-29T21:31:10.958Z,4.00
2017-12-29T21:33:39.115Z,4.10
2017-12-29T21:36:08.057Z,4.10
2017-12-29T21:38:36.230Z,4.00
2017-12-29T21:41:05.122Z,4.10
2017-12-29T21:43:34.045Z,4.10
2017-12-29T21:46:02.922Z,4.10
2017-12-29T21:48:31.847Z,4.10
2017-12-29T21:51:00.737Z,4.20
2017-12-29T21:53:29.681Z,4.20
2017-12-29T21:55:57.837Z,4.20
2017-12-29T21:58:27.569Z,4.20
2017-12-29T22:00:56.490Z,4.20
2017-12-29T22:03:24.629Z,4.20
2017-12-29T22:05:52.776Z,4.30
2017-12-29T22:08:20.929Z,4.30
2017-12-29T22:10:49.088Z,4.30
2017-12-29T22:13:17.212Z,4.20
2017-12-29T22:15:45.360Z,4.30
2017-12-29T22:18:13.491Z,4.30
2017-12-29T22:20:42.434Z,4.40
2017-12-29T22:23:10.597Z,4.40
2017-12-29T22:25:38.728Z,4.40
2017-12-29T22:28:07.676Z,4.50
2017-12-29T22:30:35.846Z,4.40
2017-12-29T22:33:04.728Z,4.50
2017-12-29T22:35:33.666Z,4.50
2017-12-29T22:38:02.552Z,4.60
2017-12-29T22:40:30.674Z,4.50
2017-12-29T22:42:59.724Z,4.60
2017-12-29T22:45:28.630Z,4.60
2017-12-29T22:47:57.560Z,4.60
2017-12-29T22:50:25.702Z,4.60
2017-12-29T22:52:53.854Z,4.60
2017-12-29T22:55:21.983Z,4.60
2017-12-29T22:57:52.793Z,4.60
2017-12-29T23:00:20.948Z,4.60
2017-12-29T23:02:49.824Z,4.50
2017-12-29T23:05:18.775Z,4.60
2017-12-29T23:07:47.860Z,4.50
2017-12-29T23:10:16.827Z,4.70
2017-12-29T23:12:44.974Z,4.70
2017-12-29T23:15:13.129Z,4.80
2017-12-29T23:17:41.264Z,4.90
2017-12-29T23:20:09.417Z,4.90
2017-12-29T23:22:37.564Z,4.80
2017-12-29T23:25:05.703Z,4.90
2017-12-29T23:27:34.974Z,4.90
2017-12-29T23:30:03.904Z,4.90
2017-12-29T23:32:32.031Z,4.90
2017-12-29T23:35:00.160Z,4.90
2017-12-29T23:37:28.319Z,5.00
2017-12-29T23:39:56.441Z,5.00
2017-12-29T23:42:24.580Z,5.10
2017-12-29T23:44:52.708Z,5.10
2017-12-29T23:47:22.463Z,5.10
2017-12-29T23:49:50.596Z,5.10
2017-12-29T23:52:19.499Z,5.10
2017-12-29T23:54:50.656Z,5.20
2017-12-29T23:57:19.555Z,5.30
2017-12-29T23:59:48.460Z,5.10
